sensor_id;sensor_type;location;lat;lon;timestamp;pressure;altitude;pressure_sealevel;temperature;humidity
63691;BME280;49837;57.280;27.070;2024-01-11T00:00:43;99384.53;;;0.46;100.0
63691;BME280;49837;57.280;27.070;2024-01-11T00:01:46;99381.91;;;0.46;100.0
63691;BME280;49837;57.280;27.070;2024-01-11T00:02:44;99386.89;;;0.47;100.0
63691;BME280;49837;57.280;27.070;2024-01-11T00:03:44;99379.27;;;0.48;100.0
63691;BME280;49837;57.280;27.070;2024-01-11T00:04:45;99384.45;;;0.43;100.0
63691;BME280;49837;57.280;27.070;2024-01-11T00:05:45;99384.02;;;0.46;100.0
63691;BME280;49837;57.280;27.070;2024-01-11T00:06:45;99370.91;;;0.48;100.0
63691;BME280;49837;57.280;27.070;2024-01-11T00:07:45;99377.45;;;0.47;100.0
63691;BME280;49837;57.280;27.070;2024-01-11T00:08:46;99381.56;;;0.47;100.0
63691;BME280;49837;57.280;27.070;2024-01-11T00:09:46;99379.03;;;0.48;100.0
63691;BME280;49837;57.280;27.070;2024-01-11T00:10:47;99378.35;;;0.49;100.0
63691;BME280;49837;57.280;27.070;2024-01-11T00:11:47;99383.05;;;0.48;100.0
63691;BME280;49837;57.280;27.070;2024-01-11T00:12:47;99375.67;;;0.46;100.0
63691;BME280;49837;57.280;27.070;2024-01-11T00:13:48;99379.84;;;0.44;100.0
63691;BME280;49837;57.280;27.070;2024-01-11T00:14:48;99405.38;;;0.47;100.0
63691;BME280;49837;57.280;27.070;2024-01-11T00:15:48;99376.66;;;0.49;100.0
63691;BME280;49837;57.280;27.070;2024-01-11T00:16:49;99380.01;;;0.47;100.0
63691;BME280;49837;57.280;27.070;2024-01-11T00:17:49;99367.62;;;0.48;100.0
63691;BME280;49837;57.280;27.070;2024-01-11T00:18:49;99376.64;;;0.46;100.0
63691;BME280;49837;57.280;27.070;2024-01-11T00:19:50;99375.16;;;0.44;100.0
63691;BME280;49837;57.280;27.070;2024-01-11T00:20:50;99374.75;;;0.44;100.0
63691;BME280;49837;57.280;27.070;2024-01-11T00:21:50;99369.92;;;0.46;100.0
63691;BME280;49837;57.280;27.070;2024-01-11T00:22:51;99379.34;;;0.5;100.0
63691;BME280;49837;57.280;27.070;2024-01-11T00:23:51;99369.52;;;0.46;100.0
63691;BME280;49837;57.280;27.070;2024-01-11T00:24:51;99379.02;;;0.44;100.0
63691;BME280;49837;57.280;27.070;2024-01-11T00:25:52;99365.16;;;0.45;100.0
63691;BME280;49837;57.280;27.070;2024-01-11T00:26:52;99378.03;;;0.46;100.0
63691;BME280;49837;57.280;27.070;2024-01-11T00:27:52;99376.48;;;0.45;100.0
63691;BME280;49837;57.280;27.070;2024-01-11T00:28:53;99372.95;;;0.44;100.0
63691;BME280;49837;57.280;27.070;2024-01-11T00:29:53;99372.38;;;0.42;100.0
63691;BME280;49837;57.280;27.070;2024-01-11T00:30:53;99388.39;;;0.43;100.0
63691;BME280;49837;57.280;27.070;2024-01-11T00:31:54;99372.94;;;0.48;100.0
63691;BME280;49837;57.280;27.070;2024-01-11T00:32:54;99368.78;;;0.47;100.0
63691;BME280;49837;57.280;27.070;2024-01-11T00:33:55;99380.48;;;0.48;100.0
63691;BME280;49837;57.280;27.070;2024-01-11T00:34:55;99380.81;;;0.46;100.0
63691;BME280;49837;57.280;27.070;2024-01-11T00:35:55;99374.84;;;0.47;100.0
63691;BME280;49837;57.280;27.070;2024-01-11T00:36:56;99379.94;;;0.51;100.0
63691;BME280;49837;57.280;27.070;2024-01-11T00:37:56;99364.41;;;0.52;100.0
63691;BME280;49837;57.280;27.070;2024-01-11T00:38:56;99361.86;;;0.55;100.0
63691;BME280;49837;57.280;27.070;2024-01-11T00:39:57;99366.97;;;0.5;100.0
63691;BME280;49837;57.280;27.070;2024-01-11T00:40:57;99363.36;;;0.47;100.0
63691;BME280;49837;57.280;27.070;2024-01-11T00:41:57;99358.92;;;0.47;100.0
63691;BME280;49837;57.280;27.070;2024-01-11T00:42:58;99359.41;;;0.49;100.0
63691;BME280;49837;57.280;27.070;2024-01-11T00:43:58;99357.2;;;0.45;100.0
63691;BME280;49837;57.280;27.070;2024-01-11T00:44:58;99363.19;;;0.44;100.0
63691;BME280;49837;57.280;27.070;2024-01-11T00:45:59;99359.17;;;0.44;100.0
63691;BME280;49837;57.280;27.070;2024-01-11T00:46:59;99358.19;;;0.45;100.0
63691;BME280;49837;57.280;27.070;2024-01-11T00:47:59;99367.45;;;0.46;100.0
63691;BME280;49837;57.280;27.070;2024-01-11T00:49:00;99360.16;;;0.45;100.0
63691;BME280;49837;57.280;27.070;2024-01-11T00:50:00;99354.58;;;0.43;100.0
63691;BME280;49837;57.280;27.070;2024-01-11T00:51:00;99366.23;;;0.43;100.0
63691;BME280;49837;57.280;27.070;2024-01-11T00:52:01;99359.48;;;0.46;100.0
63691;BME280;49837;57.280;27.070;2024-01-11T00:53:01;99357.86;;;0.44;100.0
63691;BME280;49837;57.280;27.070;2024-01-11T00:54:01;99348.75;;;0.44;100.0
63691;BME280;49837;57.280;27.070;2024-01-11T00:55:02;99346.52;;;0.47;100.0
63691;BME280;49837;57.280;27.070;2024-01-11T00:56:03;99345.3;;;0.46;100.0
63691;BME280;49837;57.280;27.070;2024-01-11T00:57:03;99339.23;;;0.45;100.0
63691;BME280;49837;57.280;27.070;2024-01-11T00:58:03;99346.12;;;0.42;100.0
63691;BME280;49837;57.280;27.070;2024-01-11T00:59:03;99345.56;;;0.42;100.0
63691;BME280;49837;57.280;27.070;2024-01-11T01:00:04;99343.42;;;0.41;100.0
63691;BME280;49837;57.280;27.070;2024-01-11T01:01:08;99342.18;;;0.45;100.0
63691;BME280;49837;57.280;27.070;2024-01-11T01:02:06;99346.23;;;0.43;100.0
63691;BME280;49837;57.280;27.070;2024-01-11T01:03:06;99345.98;;;0.42;100.0
63691;BME280;49837;57.280;27.070;2024-01-11T01:04:07;99343.09;;;0.42;100.0
63691;BME280;49837;57.280;27.070;2024-01-11T01:05:08;99352.37;;;0.46;100.0
63691;BME280;49837;57.280;27.070;2024-01-11T01:06:07;99336.52;;;0.49;100.0
63691;BME280;49837;57.280;27.070;2024-01-11T01:07:08;99347.59;;;0.45;100.0
63691;BME280;49837;57.280;27.070;2024-01-11T01:08:08;99346.3;;;0.45;100.0
63691;BME280;49837;57.280;27.070;2024-01-11T01:09:08;99346.38;;;0.45;100.0
63691;BME280;49837;57.280;27.070;2024-01-11T01:10:09;99349.26;;;0.42;100.0
63691;BME280;49837;57.280;27.070;2024-01-11T01:11:09;99347.2;;;0.42;100.0
63691;BME280;49837;57.280;27.070;2024-01-11T01:12:09;99348.67;;;0.43;100.0
63691;BME280;49837;57.280;27.070;2024-01-11T01:13:10;99344.91;;;0.42;100.0
63691;BME280;49837;57.280;27.070;2024-01-11T01:14:10;99343.9;;;0.44;100.0
63691;BME280;49837;57.280;27.070;2024-01-11T01:15:10;99337.5;;;0.47;100.0
63691;BME280;49837;57.280;27.070;2024-01-11T01:16:11;99343.83;;;0.43;100.0
63691;BME280;49837;57.280;27.070;2024-01-11T01:17:11;99338.81;;;0.46;100.0
63691;BME280;49837;57.280;27.070;2024-01-11T01:18:13;99343.98;;;0.46;100.0
63691;BME280;49837;57.280;27.070;2024-01-11T01:19:13;99337.09;;;0.48;100.0
63691;BME280;49837;57.280;27.070;2024-01-11T01:20:14;99336.44;;;0.46;100.0
63691;BME280;49837;57.280;27.070;2024-01-11T01:21:14;99335.2;;;0.5;100.0
63691;BME280;49837;57.280;27.070;2024-01-11T01:22:14;99340.23;;;0.46;100.0
63691;BME280;49837;57.280;27.070;2024-01-11T01:23:14;99351.46;;;0.43;100.0
63691;BME280;49837;57.280;27.070;2024-01-11T01:24:15;99346.79;;;0.49;100.0
63691;BME280;49837;57.280;27.070;2024-01-11T01:25:15;99348.67;;;0.48;100.0
63691;BME280;49837;57.280;27.070;2024-01-11T01:26:16;99345.13;;;0.48;100.0
63691;BME280;49837;57.280;27.070;2024-01-11T01:27:16;99343.41;;;0.47;100.0
63691;BME280;49837;57.280;27.070;2024-01-11T01:28:16;99343.52;;;0.45;100.0
63691;BME280;49837;57.280;27.070;2024-01-11T01:29:17;99341.69;;;0.46;100.0
63691;BME280;49837;57.280;27.070;2024-01-11T01:30:17;99338.68;;;0.43;100.0
63691;BME280;49837;57.280;27.070;2024-01-11T01:31:17;99337.04;;;0.43;100.0
63691;BME280;49837;57.280;27.070;2024-01-11T01:32:18;99340.81;;;0.43;100.0
63691;BME280;49837;57.280;27.070;2024-01-11T01:33:18;99343.44;;;0.41;100.0
63691;BME280;49837;57.280;27.070;2024-01-11T01:34:19;99347.94;;;0.46;100.0
63691;BME280;49837;57.280;27.070;2024-01-11T01:35:19;99345.3;;;0.44;100.0
63691;BME280;49837;57.280;27.070;2024-01-11T01:36:19;99335.78;;;0.44;100.0
63691;BME280;49837;57.280;27.070;2024-01-11T01:37:19;99333.33;;;0.42;100.0
63691;BME280;49837;57.280;27.070;2024-01-11T01:38:20;99330.62;;;0.42;100.0
63691;BME280;49837;57.280;27.070;2024-01-11T01:39:20;99333.81;;;0.43;100.0
63691;BME280;49837;57.280;27.070;2024-01-11T01:40:20;99335.23;;;0.43;100.0
63691;BME280;49837;57.280;27.070;2024-01-11T01:41:21;99339.3;;;0.44;100.0
63691;BME280;49837;57.280;27.070;2024-01-11T01:42:21;99335.95;;;0.46;100.0
63691;BME280;49837;57.280;27.070;2024-01-11T01:43:21;99334.4;;;0.42;100.0
63691;BME280;49837;57.280;27.070;2024-01-11T01:44:22;99333.83;;;0.44;100.0
63691;BME280;49837;57.280;27.070;2024-01-11T01:45:22;99334.42;;;0.42;100.0
63691;BME280;49837;57.280;27.070;2024-01-11T01:46:23;99329.64;;;0.44;100.0
63691;BME280;49837;57.280;27.070;2024-01-11T01:47:23;99322.92;;;0.4;100.0
63691;BME280;49837;57.280;27.070;2024-01-11T01:48:23;99310.13;;;0.42;100.0
63691;BME280;49837;57.280;27.070;2024-01-11T01:49:24;99313.23;;;0.45;100.0
63691;BME280;49837;57.280;27.070;2024-01-11T01:50:25;99309.46;;;0.43;100.0
63691;BME280;49837;57.280;27.070;2024-01-11T01:51:26;99307.18;;;0.41;100.0
63691;BME280;49837;57.280;27.070;2024-01-11T01:52:26;99313.9;;;0.36;100.0
63691;BME280;49837;57.280;27.070;2024-01-11T01:53:27;99313.91;;;0.4;100.0
63691;BME280;49837;57.280;27.070;2024-01-11T01:54:27;99307.67;;;0.4;100.0
63691;BME280;49837;57.280;27.070;2024-01-11T01:55:28;99303.23;;;0.37;100.0
63691;BME280;49837;57.280;27.070;2024-01-11T01:56:27;99314.25;;;0.35;100.0
63691;BME280;49837;57.280;27.070;2024-01-11T01:57:28;99307.42;;;0.41;100.0
63691;BME280;49837;57.280;27.070;2024-01-11T01:58:28;99306.11;;;0.4;100.0
63691;BME280;49837;57.280;27.070;2024-01-11T01:59:29;99306.86;;;0.4;100.0
63691;BME280;49837;57.280;27.070;2024-01-11T02:00:28;99300.86;;;0.38;100.0
63691;BME280;49837;57.280;27.070;2024-01-11T02:01:30;99295.28;;;0.38;100.0
63691;BME280;49837;57.280;27.070;2024-01-11T02:02:31;99298.23;;;0.36;100.0
63691;BME280;49837;57.280;27.070;2024-01-11T02:03:30;99299.05;;;0.36;100.0
63691;BME280;49837;57.280;27.070;2024-01-11T02:04:30;99294.72;;;0.36;100.0
63691;BME280;49837;57.280;27.070;2024-01-11T02:05:30;99291.41;;;0.41;100.0
63691;BME280;49837;57.280;27.070;2024-01-11T02:06:32;99292.33;;;0.38;100.0
63691;BME280;49837;57.280;27.070;2024-01-11T02:07:31;99289.78;;;0.39;100.0
63691;BME280;49837;57.280;27.070;2024-01-11T02:08:32;99286.02;;;0.35;100.0
63691;BME280;49837;57.280;27.070;2024-01-11T02:09:33;99289.63;;;0.37;100.0
63691;BME280;49837;57.280;27.070;2024-01-11T02:10:33;99283.48;;;0.35;100.0
63691;BME280;49837;57.280;27.070;2024-01-11T02:11:34;99287.23;;;0.4;100.0
63691;BME280;49837;57.280;27.070;2024-01-11T02:12:35;99285.52;;;0.39;100.0
63691;BME280;49837;57.280;27.070;2024-01-11T02:13:33;99287.73;;;0.38;100.0
63691;BME280;49837;57.280;27.070;2024-01-11T02:14:34;99286.17;;;0.39;100.0
63691;BME280;49837;57.280;27.070;2024-01-11T02:15:34;99287.16;;;0.39;100.0
63691;BME280;49837;57.280;27.070;2024-01-11T02:16:34;99288.39;;;0.36;100.0
63691;BME280;49837;57.280;27.070;2024-01-11T02:17:35;99279.13;;;0.38;100.0
63691;BME280;49837;57.280;27.070;2024-01-11T02:18:35;99286.43;;;0.36;100.0
63691;BME280;49837;57.280;27.070;2024-01-11T02:19:36;99287.01;;;0.37;100.0
63691;BME280;49837;57.280;27.070;2024-01-11T02:20:36;99285.2;;;0.37;100.0
63691;BME280;49837;57.280;27.070;2024-01-11T02:21:36;99284.36;;;0.41;100.0
63691;BME280;49837;57.280;27.070;2024-01-11T02:22:38;99281.81;;;0.39;100.0
63691;BME280;49837;57.280;27.070;2024-01-11T02:23:43;99293.64;;;0.38;100.0
63691;BME280;49837;57.280;27.070;2024-01-11T02:24:41;99278.14;;;0.39;100.0
63691;BME280;49837;57.280;27.070;2024-01-11T02:25:41;99287.17;;;0.38;100.0
63691;BME280;49837;57.280;27.070;2024-01-11T02:27:46;99285.19;;;0.39;100.0
63691;BME280;49837;57.280;27.070;2024-01-11T02:28:47;99281.76;;;0.37;100.0
63691;BME280;49837;57.280;27.070;2024-01-11T02:29:44;99282.64;;;0.37;100.0
63691;BME280;49837;57.280;27.070;2024-01-11T02:30:44;99288.66;;;0.35;100.0
63691;BME280;49837;57.280;27.070;2024-01-11T02:31:45;99284.16;;;0.33;100.0
63691;BME280;49837;57.280;27.070;2024-01-11T02:32:46;99285.62;;;0.3;100.0
63691;BME280;49837;57.280;27.070;2024-01-11T02:33:46;99280.21;;;0.27;100.0
63691;BME280;49837;57.280;27.070;2024-01-11T02:34:46;99284.08;;;0.27;100.0
63691;BME280;49837;57.280;27.070;2024-01-11T02:35:46;99275.88;;;0.27;100.0
63691;BME280;49837;57.280;27.070;2024-01-11T02:36:46;99281.11;;;0.22;100.0
63691;BME280;49837;57.280;27.070;2024-01-11T02:37:48;99278.83;;;0.23;100.0
63691;BME280;49837;57.280;27.070;2024-01-11T02:38:48;99275.13;;;0.22;100.0
63691;BME280;49837;57.280;27.070;2024-01-11T02:39:48;99276.06;;;0.21;100.0
63691;BME280;49837;57.280;27.070;2024-01-11T02:40:48;99277.61;;;0.2;100.0
63691;BME280;49837;57.280;27.070;2024-01-11T02:41:50;99280.66;;;0.21;100.0
63691;BME280;49837;57.280;27.070;2024-01-11T02:42:49;99270.94;;;0.26;100.0
63691;BME280;49837;57.280;27.070;2024-01-11T02:43:49;99271.92;;;0.23;100.0
63691;BME280;49837;57.280;27.070;2024-01-11T02:44:49;99284.01;;;0.2;100.0
63691;BME280;49837;57.280;27.070;2024-01-11T02:45:50;99282.18;;;0.26;100.0
63691;BME280;49837;57.280;27.070;2024-01-11T02:46:50;99284.88;;;0.25;100.0
63691;BME280;49837;57.280;27.070;2024-01-11T02:47:50;99267.59;;;0.24;100.0
63691;BME280;49837;57.280;27.070;2024-01-11T02:48:51;99256.52;;;0.25;100.0
63691;BME280;49837;57.280;27.070;2024-01-11T02:49:51;99266.2;;;0.23;100.0
63691;BME280;49837;57.280;27.070;2024-01-11T02:50:52;99259.88;;;0.22;100.0
63691;BME280;49837;57.280;27.070;2024-01-11T02:51:52;99259.95;;;0.24;100.0
63691;BME280;49837;57.280;27.070;2024-01-11T02:52:52;99252.66;;;0.22;100.0
63691;BME280;49837;57.280;27.070;2024-01-11T02:53:52;99252.12;;;0.16;100.0
63691;BME280;49837;57.280;27.070;2024-01-11T02:54:53;99255.62;;;0.2;100.0
63691;BME280;49837;57.280;27.070;2024-01-11T02:55:53;99255.22;;;0.21;100.0
63691;BME280;49837;57.280;27.070;2024-01-11T02:56:53;99254.8;;;0.21;100.0
63691;BME280;49837;57.280;27.070;2024-01-11T02:57:54;99248.14;;;0.22;100.0
63691;BME280;49837;57.280;27.070;2024-01-11T02:58:54;99250.7;;;0.21;100.0
63691;BME280;49837;57.280;27.070;2024-01-11T02:59:54;99239.45;;;0.24;100.0
63691;BME280;49837;57.280;27.070;2024-01-11T03:00:55;99246.36;;;0.23;100.0
63691;BME280;49837;57.280;27.070;2024-01-11T03:01:55;99251.3;;;0.21;100.0
63691;BME280;49837;57.280;27.070;2024-01-11T03:02:55;99241.86;;;0.2;100.0
63691;BME280;49837;57.280;27.070;2024-01-11T03:03:56;99242.11;;;0.21;100.0
63691;BME280;49837;57.280;27.070;2024-01-11T03:04:56;99241.01;;;0.26;100.0
63691;BME280;49837;57.280;27.070;2024-01-11T03:05:57;99241.27;;;0.24;100.0
63691;BME280;49837;57.280;27.070;2024-01-11T03:06:57;99243.56;;;0.23;100.0
63691;BME280;49837;57.280;27.070;2024-01-11T03:07:57;99238.56;;;0.25;100.0
63691;BME280;49837;57.280;27.070;2024-01-11T03:08:57;99234.47;;;0.24;100.0
63691;BME280;49837;57.280;27.070;2024-01-11T03:09:58;99243.07;;;0.25;100.0
63691;BME280;49837;57.280;27.070;2024-01-11T03:10:58;99233.15;;;0.27;100.0
63691;BME280;49837;57.280;27.070;2024-01-11T03:11:59;99225.94;;;0.25;100.0
63691;BME280;49837;57.280;27.070;2024-01-11T03:12:59;99233.46;;;0.26;100.0
63691;BME280;49837;57.280;27.070;2024-01-11T03:13:59;99227.09;;;0.24;100.0
63691;BME280;49837;57.280;27.070;2024-01-11T03:15:00;99235.19;;;0.24;100.0
63691;BME280;49837;57.280;27.070;2024-01-11T03:16:00;99228.07;;;0.24;100.0
63691;BME280;49837;57.280;27.070;2024-01-11T03:17:00;99238.63;;;0.27;100.0
63691;BME280;49837;57.280;27.070;2024-01-11T03:18:01;99225.03;;;0.25;100.0
63691;BME280;49837;57.280;27.070;2024-01-11T03:19:01;99235.34;;;0.23;100.0
63691;BME280;49837;57.280;27.070;2024-01-11T03:20:02;99230.86;;;0.23;100.0
63691;BME280;49837;57.280;27.070;2024-01-11T03:21:02;99232.23;;;0.26;100.0
63691;BME280;49837;57.280;27.070;2024-01-11T03:22:02;99231.41;;;0.27;100.0
63691;BME280;49837;57.280;27.070;2024-01-11T03:23:03;99232.98;;;0.3;100.0
63691;BME280;49837;57.280;27.070;2024-01-11T03:24:03;99236.42;;;0.28;100.0
63691;BME280;49837;57.280;27.070;2024-01-11T03:25:03;99235.19;;;0.27;100.0
63691;BME280;49837;57.280;27.070;2024-01-11T03:26:04;99231.02;;;0.27;100.0
63691;BME280;49837;57.280;27.070;2024-01-11T03:27:08;99233.32;;;0.24;100.0
63691;BME280;49837;57.280;27.070;2024-01-11T03:28:09;99227.66;;;0.25;100.0
63691;BME280;49837;57.280;27.070;2024-01-11T03:29:09;99224.44;;;0.27;100.0
63691;BME280;49837;57.280;27.070;2024-01-11T03:30:10;99222.47;;;0.29;100.0
63691;BME280;49837;57.280;27.070;2024-01-11T03:31:10;99223.96;;;0.29;100.0
63691;BME280;49837;57.280;27.070;2024-01-11T03:32:10;99224.92;;;0.3;100.0
63691;BME280;49837;57.280;27.070;2024-01-11T03:33:11;99220.98;;;0.31;100.0
63691;BME280;49837;57.280;27.070;2024-01-11T03:34:11;99221.16;;;0.29;100.0
63691;BME280;49837;57.280;27.070;2024-01-11T03:35:11;99226.41;;;0.26;100.0
63691;BME280;49837;57.280;27.070;2024-01-11T03:36:12;99236.75;;;0.28;100.0
63691;BME280;49837;57.280;27.070;2024-01-11T03:37:12;99228.3;;;0.28;100.0
63691;BME280;49837;57.280;27.070;2024-01-11T03:38:12;99229.53;;;0.3;100.0
63691;BME280;49837;57.280;27.070;2024-01-11T03:39:12;99228.38;;;0.28;100.0
63691;BME280;49837;57.280;27.070;2024-01-11T03:40:13;99231.82;;;0.26;100.0
63691;BME280;49837;57.280;27.070;2024-01-11T03:41:13;99226.48;;;0.29;100.0
63691;BME280;49837;57.280;27.070;2024-01-11T03:42:13;99228.88;;;0.29;100.0
63691;BME280;49837;57.280;27.070;2024-01-11T03:43:17;99239.12;;;0.26;100.0
63691;BME280;49837;57.280;27.070;2024-01-11T03:44:14;99227.8;;;0.3;100.0
63691;BME280;49837;57.280;27.070;2024-01-11T03:45:18;99248.89;;;0.3;100.0
63691;BME280;49837;57.280;27.070;2024-01-11T03:46:15;99243.15;;;0.29;100.0
63691;BME280;49837;57.280;27.070;2024-01-11T03:47:16;99257.73;;;0.32;100.0
63691;BME280;49837;57.280;27.070;2024-01-11T03:48:16;99249.85;;;0.33;100.0
63691;BME280;49837;57.280;27.070;2024-01-11T03:49:16;99238.95;;;0.31;100.0
63691;BME280;49837;57.280;27.070;2024-01-11T03:50:17;99233.37;;;0.28;100.0
63691;BME280;49837;57.280;27.070;2024-01-11T03:51:17;99230.25;;;0.33;100.0
63691;BME280;49837;57.280;27.070;2024-01-11T03:52:17;99239.36;;;0.31;100.0
63691;BME280;49837;57.280;27.070;2024-01-11T03:53:18;99234.62;;;0.3;100.0
63691;BME280;49837;57.280;27.070;2024-01-11T03:54:18;99242.31;;;0.29;100.0
63691;BME280;49837;57.280;27.070;2024-01-11T03:55:19;99253.3;;;0.32;100.0
63691;BME280;49837;57.280;27.070;2024-01-11T03:56:19;99231.07;;;0.34;100.0
63691;BME280;49837;57.280;27.070;2024-01-11T03:57:19;99243.77;;;0.36;100.0
63691;BME280;49837;57.280;27.070;2024-01-11T03:58:20;99237.84;;;0.37;100.0
63691;BME280;49837;57.280;27.070;2024-01-11T03:59:20;99228.44;;;0.36;100.0
63691;BME280;49837;57.280;27.070;2024-01-11T04:00:20;99242.94;;;0.35;100.0
63691;BME280;49837;57.280;27.070;2024-01-11T04:01:20;99236.32;;;0.35;100.0
63691;BME280;49837;57.280;27.070;2024-01-11T04:02:21;99230.14;;;0.38;100.0
63691;BME280;49837;57.280;27.070;2024-01-11T04:03:21;99240.57;;;0.41;100.0
63691;BME280;49837;57.280;27.070;2024-01-11T04:04:21;99233.02;;;0.39;100.0
63691;BME280;49837;57.280;27.070;2024-01-11T04:05:22;99242.88;;;0.34;100.0
63691;BME280;49837;57.280;27.070;2024-01-11T04:06:22;99239.16;;;0.42;100.0
63691;BME280;49837;57.280;27.070;2024-01-11T04:07:22;99232.09;;;0.4;100.0
63691;BME280;49837;57.280;27.070;2024-01-11T04:08:23;99245.39;;;0.4;100.0
63691;BME280;49837;57.280;27.070;2024-01-11T04:09:23;99246.55;;;0.4;100.0
63691;BME280;49837;57.280;27.070;2024-01-11T04:10:23;99247.8;;;0.36;100.0
63691;BME280;49837;57.280;27.070;2024-01-11T04:11:27;99245.5;;;0.37;100.0
63691;BME280;49837;57.280;27.070;2024-01-11T04:12:25;99235.62;;;0.41;100.0
63691;BME280;49837;57.280;27.070;2024-01-11T04:13:25;99238.84;;;0.41;100.0
63691;BME280;49837;57.280;27.070;2024-01-11T04:14:26;99231.39;;;0.39;100.0
63691;BME280;49837;57.280;27.070;2024-01-11T04:15:26;99244.84;;;0.39;100.0
63691;BME280;49837;57.280;27.070;2024-01-11T04:16:26;99232.38;;;0.38;100.0
63691;BME280;49837;57.280;27.070;2024-01-11T04:17:27;99233.91;;;0.4;100.0
63691;BME280;49837;57.280;27.070;2024-01-11T04:18:27;99226.77;;;0.4;100.0
63691;BME280;49837;57.280;27.070;2024-01-11T04:19:27;99227.11;;;0.43;100.0
63691;BME280;49837;57.280;27.070;2024-01-11T04:20:28;99229.3;;;0.41;100.0
63691;BME280;49837;57.280;27.070;2024-01-11T04:21:28;99235.88;;;0.41;100.0
63691;BME280;49837;57.280;27.070;2024-01-11T04:22:28;99224.47;;;0.42;100.0
63691;BME280;49837;57.280;27.070;2024-01-11T04:23:29;99221.59;;;0.42;100.0
63691;BME280;49837;57.280;27.070;2024-01-11T04:24:29;99229.95;;;0.42;100.0
63691;BME280;49837;57.280;27.070;2024-01-11T04:25:29;99227.84;;;0.37;100.0
63691;BME280;49837;57.280;27.070;2024-01-11T04:26:30;99219.41;;;0.39;100.0
63691;BME280;49837;57.280;27.070;2024-01-11T04:27:30;99214.39;;;0.42;100.0
63691;BME280;49837;57.280;27.070;2024-01-11T04:28:30;99221.33;;;0.44;100.0
63691;BME280;49837;57.280;27.070;2024-01-11T04:29:31;99221.98;;;0.44;100.0
63691;BME280;49837;57.280;27.070;2024-01-11T04:30:31;99216.84;;;0.44;100.0
63691;BME280;49837;57.280;27.070;2024-01-11T04:31:32;99220.53;;;0.43;100.0
63691;BME280;49837;57.280;27.070;2024-01-11T04:32:32;99233.84;;;0.41;100.0
63691;BME280;49837;57.280;27.070;2024-01-11T04:33:32;99225.95;;;0.4;100.0
63691;BME280;49837;57.280;27.070;2024-01-11T04:34:33;99234.22;;;0.44;100.0
63691;BME280;49837;57.280;27.070;2024-01-11T04:35:33;99229.79;;;0.44;100.0
63691;BME280;49837;57.280;27.070;2024-01-11T04:36:33;99240.2;;;0.46;100.0
63691;BME280;49837;57.280;27.070;2024-01-11T04:37:35;99234.94;;;0.47;100.0
63691;BME280;49837;57.280;27.070;2024-01-11T04:38:34;99237.84;;;0.47;100.0
63691;BME280;49837;57.280;27.070;2024-01-11T04:39:35;99221.58;;;0.48;100.0
63691;BME280;49837;57.280;27.070;2024-01-11T04:40:35;99226.03;;;0.43;100.0
63691;BME280;49837;57.280;27.070;2024-01-11T04:41:36;99228.33;;;0.38;100.0
63691;BME280;49837;57.280;27.070;2024-01-11T04:42:36;99225.23;;;0.37;100.0
63691;BME280;49837;57.280;27.070;2024-01-11T04:43:40;99224.57;;;0.39;100.0
63691;BME280;49837;57.280;27.070;2024-01-11T04:44:38;99229.98;;;0.38;100.0
63691;BME280;49837;57.280;27.070;2024-01-11T04:45:38;99224.81;;;0.38;100.0
63691;BME280;49837;57.280;27.070;2024-01-11T04:46:39;99227.84;;;0.37;100.0
63691;BME280;49837;57.280;27.070;2024-01-11T04:47:39;99227.61;;;0.35;100.0
63691;BME280;49837;57.280;27.070;2024-01-11T04:48:39;99227.21;;;0.33;100.0
63691;BME280;49837;57.280;27.070;2024-01-11T04:49:40;99223.95;;;0.32;100.0
63691;BME280;49837;57.280;27.070;2024-01-11T04:50:40;99218.92;;;0.32;100.0
63691;BME280;49837;57.280;27.070;2024-01-11T04:51:41;99217.35;;;0.34;100.0
63691;BME280;49837;57.280;27.070;2024-01-11T04:52:41;99220.75;;;0.29;100.0
63691;BME280;49837;57.280;27.070;2024-01-11T04:53:41;99228.79;;;0.29;100.0
63691;BME280;49837;57.280;27.070;2024-01-11T04:54:41;99225.66;;;0.28;100.0
63691;BME280;49837;57.280;27.070;2024-01-11T04:55:42;99222.05;;;0.26;100.0
63691;BME280;49837;57.280;27.070;2024-01-11T04:56:42;99219.42;;;0.29;100.0
63691;BME280;49837;57.280;27.070;2024-01-11T04:57:42;99225.93;;;0.28;100.0
63691;BME280;49837;57.280;27.070;2024-01-11T04:58:44;99227.47;;;0.25;100.0
63691;BME280;49837;57.280;27.070;2024-01-11T04:59:43;99221.49;;;0.31;100.0
63691;BME280;49837;57.280;27.070;2024-01-11T05:00:43;99229.84;;;0.29;100.0
63691;BME280;49837;57.280;27.070;2024-01-11T05:01:45;99232.49;;;0.27;100.0
63691;BME280;49837;57.280;27.070;2024-01-11T05:02:44;99236.21;;;0.17;100.0
63691;BME280;49837;57.280;27.070;2024-01-11T05:03:45;99233.42;;;0.07;100.0
63691;BME280;49837;57.280;27.070;2024-01-11T05:04:45;99225.67;;;0.02;100.0
63691;BME280;49837;57.280;27.070;2024-01-11T05:05:45;99228.97;;;-0.01;100.0
63691;BME280;49837;57.280;27.070;2024-01-11T05:06:45;99224.33;;;-0.07;100.0
63691;BME280;49837;57.280;27.070;2024-01-11T05:07:46;99238.73;;;-0.06;100.0
63691;BME280;49837;57.280;27.070;2024-01-11T05:08:47;99231.77;;;-0.07;100.0
63691;BME280;49837;57.280;27.070;2024-01-11T05:09:46;99219.22;;;-0.04;100.0
63691;BME280;49837;57.280;27.070;2024-01-11T05:10:47;99227.97;;;0.0;100.0
63691;BME280;49837;57.280;27.070;2024-01-11T05:11:47;99223.04;;;0.03;100.0
63691;BME280;49837;57.280;27.070;2024-01-11T05:12:48;99230.33;;;0.01;100.0
63691;BME280;49837;57.280;27.070;2024-01-11T05:13:48;99242.61;;;0.06;100.0
63691;BME280;49837;57.280;27.070;2024-01-11T05:14:48;99239.26;;;0.05;100.0
63691;BME280;49837;57.280;27.070;2024-01-11T05:15:49;99237.36;;;0.06;100.0
63691;BME280;49837;57.280;27.070;2024-01-11T05:16:49;99235.88;;;0.06;100.0
63691;BME280;49837;57.280;27.070;2024-01-11T05:17:49;99233.11;;;0.09;100.0
63691;BME280;49837;57.280;27.070;2024-01-11T05:18:51;99235.23;;;0.07;100.0
63691;BME280;49837;57.280;27.070;2024-01-11T05:19:50;99229.75;;;0.1;100.0
63691;BME280;49837;57.280;27.070;2024-01-11T05:20:50;99224.02;;;0.08;100.0
63691;BME280;49837;57.280;27.070;2024-01-11T05:21:51;99231.62;;;0.08;100.0